Aérodrome :
LOGIN :

S'inscrire | Disclaimer

   EN    FR    IT 

 










Légende :    VFR   VFR Marginal   IFR   IFR Intensif   IFR Très Intensif
Visi : 
Plafond : 
>= 8 km
>= 3000ft
5 à 8 km
1000 à 3000 ft
1500m à 5 km
500 à 1000 ft
800 à 1500m
200 à 500 ft
< 800m
< 200 ft
Symboles :   Orages  Brouillard  Fortes neiges  Fortes précipitations  Vent > 20 kt
SIGMETs :   Divers  Orages  Givrage  Turbulence  Onde Orograph.  Cendres Volcan.







- Altitude de l'aérodrome : 174 ft
- Code IATA : RYG


ENRY - Moss , Rygge

DERNIER METAR :
  • 240550Z AUTO VRB02KT 2300NDV VV001 17/17 Q1019

METARs EXPIRÉS :
  • 240520Z AUTO 20003KT 160V230 0700NDV R12/P2000N R30/1000V1400U FG OVC001/// 17/17 Q1019
  • 240450Z AUTO VRB02KT 0650NDV R12/1000V1600U R30/0900V1700U FG OVC001/// 17/17 Q1019
  • 240420Z AUTO 18004KT 0450NDV R12/0900VP2000U R30/0800V1400N FG OVC001/// 17/17 Q1019
  • 240350Z AUTO 14004KT 0800NDV R12/P2000D R30/1500N VV001 17/17 Q1019
  • 240320Z AUTO 12003KT 0550NDV R12/1300N R30/P2000N FG OVC001/// 17/17 Q1019

TAF TAF ENRY
Valide du 24 à 06h jusqu'au 25 à 06h UTC


2406/2506 VRB05KT 0800 FG VV001
BECMG 2406/2408 CAVOK
Pas de NOTAMs connus pour ce terrain.



MET'MAP, la Météo Aéronautique d'un coup d'oeil ! - Copyright ORBIFLY Décembre 2007 - Disclaimer

ORBIFLY MET'MAP TEAM :

Programmation & Développement : Alexandra Zaïnal
Conception & Développement : Baudouin d'Aumeries
Co-Programmation & Développement : Marc-Olivier Méhu
Soutien technique & logistique : Manuel Goepfert

Contact : metmap@orbifly.com




SOURCES & CREDITS :

   NOAA